createdAt,value
2023-03-20T00:00:47.720Z,97800.16
2023-03-20T00:03:17.314Z,97805.38
2023-03-20T00:05:45.809Z,97807.00
2023-03-20T00:08:14.159Z,97808.06
2023-03-20T00:10:42.923Z,97812.97
2023-03-20T00:13:14.621Z,97813.38
2023-03-20T00:15:43.449Z,97813.69
2023-03-20T00:18:18.346Z,97818.75
2023-03-20T00:20:46.822Z,97811.81
2023-03-20T00:23:15.465Z,97811.69
2023-03-20T00:25:43.978Z,97817.38
2023-03-20T00:28:39.046Z,97825.72
2023-03-20T00:31:10.844Z,97825.31
2023-03-20T00:33:40.412Z,97831.78
2023-03-20T00:36:10.236Z,97834.19
2023-03-20T00:38:38.250Z,97832.78
2023-03-20T00:41:17.028Z,97839.16
2023-03-20T00:43:45.127Z,97837.44
2023-03-20T00:46:13.320Z,97834.13
2023-03-20T00:48:43.476Z,97838.81
2023-03-20T00:51:11.589Z,97846.06
2023-03-20T00:53:39.960Z,97839.94
2023-03-20T00:56:08.733Z,97838.66
2023-03-20T00:58:36.977Z,97849.72
2023-03-20T01:01:05.142Z,97848.38
2023-03-20T01:03:33.296Z,97837.59
2023-03-20T01:06:02.862Z,97846.53
2023-03-20T01:08:31.001Z,97843.44
2023-03-20T01:10:59.282Z,97844.72
2023-03-20T01:13:28.035Z,97839.41
2023-03-20T01:15:56.656Z,97833.97
2023-03-20T01:18:25.706Z,97837.28
2023-03-20T01:20:53.975Z,97836.38
2023-03-20T01:23:24.623Z,97826.28
2023-03-20T01:25:52.594Z,97814.22
2023-03-20T01:28:23.322Z,97813.38
2023-03-20T01:30:52.664Z,97818.84
2023-03-20T01:33:21.358Z,97816.72
2023-03-20T01:35:50.142Z,97825.38
2023-03-20T01:38:20.229Z,97835.94
2023-03-20T01:40:55.672Z,97832.19
2023-03-20T01:43:24.356Z,97831.44
2023-03-20T01:45:58.725Z,97832.44
2023-03-20T01:48:28.227Z,97822.78
2023-03-20T01:50:56.592Z,97824.09
2023-03-20T01:53:26.019Z,97816.50
2023-03-20T01:56:00.892Z,97833.19
2023-03-20T01:58:30.331Z,97835.28
2023-03-20T02:00:58.641Z,97839.28
2023-03-20T02:03:27.487Z,97838.06
2023-03-20T02:05:55.750Z,97844.97
2023-03-20T02:08:26.265Z,97829.09
2023-03-20T02:10:55.708Z,97827.69
2023-03-20T02:13:24.091Z,97821.88
2023-03-20T02:16:00.752Z,97815.75
2023-03-20T02:18:29.002Z,97816.72
2023-03-20T02:21:54.396Z,97811.56
2023-03-20T02:25:02.449Z,97818.72
2023-03-20T02:27:34.420Z,97808.16
2023-03-20T02:30:24.826Z,97818.53
2023-03-20T02:33:25.296Z,97815.22
2023-03-20T02:36:22.278Z,97819.59
2023-03-20T02:39:05.574Z,97813.28
2023-03-20T02:41:38.007Z,97811.25
2023-03-20T02:44:12.149Z,97832.63
2023-03-20T02:46:45.802Z,97819.47
2023-03-20T02:49:19.564Z,97819.19
2023-03-20T02:51:51.364Z,97809.88
2023-03-20T02:54:24.010Z,97802.44
2023-03-20T02:56:55.140Z,97798.59
2023-03-20T02:59:27.860Z,97796.75
2023-03-20T03:01:57.677Z,97812.22
2023-03-20T03:04:27.450Z,97815.00
2023-03-20T03:06:56.114Z,97816.63
2023-03-20T03:09:27.118Z,97811.72
2023-03-20T03:11:58.008Z,97813.88
2023-03-20T03:14:31.065Z,97823.38
2023-03-20T03:16:59.692Z,97827.63
2023-03-20T03:19:28.434Z,97830.06
2023-03-20T03:21:56.514Z,97835.75
2023-03-20T03:24:40.226Z,97829.03
2023-03-20T03:27:14.357Z,97839.69
2023-03-20T03:29:42.429Z,97839.28
2023-03-20T03:32:22.766Z,97842.75
2023-03-20T03:34:51.379Z,97854.06
2023-03-20T03:37:22.685Z,97856.63
2023-03-20T03:39:52.833Z,97856.56
2023-03-20T03:42:23.571Z,97855.69
2023-03-20T03:44:56.943Z,97835.00
2023-03-20T03:47:26.822Z,97831.88
2023-03-20T03:49:56.897Z,97821.09
2023-03-20T03:52:28.642Z,97806.78
2023-03-20T03:55:00.292Z,97808.53
2023-03-20T03:57:33.551Z,97816.00
2023-03-20T04:00:01.614Z,97798.53
2023-03-20T04:02:29.668Z,97797.94
2023-03-20T04:04:57.785Z,97790.72
2023-03-20T04:07:27.402Z,97799.88
2023-03-20T04:09:57.563Z,97798.59
2023-03-20T04:12:37.657Z,97775.34
2023-03-20T04:15:06.578Z,97765.84
2023-03-20T04:17:37.605Z,97779.50
2023-03-20T04:20:07.698Z,97786.63
2023-03-20T04:22:36.090Z,97794.97
2023-03-20T04:25:08.792Z,97797.63
2023-03-20T04:27:38.353Z,97794.66
2023-03-20T04:30:10.146Z,97817.06
2023-03-20T04:32:38.255Z,97812.38
2023-03-20T04:35:07.427Z,97819.53
2023-03-20T04:37:35.449Z,97828.28
2023-03-20T04:40:04.592Z,97824.84
2023-03-20T04:42:32.631Z,97824.34
2023-03-20T04:45:02.117Z,97830.53
2023-03-20T04:47:30.115Z,97813.97
2023-03-20T04:49:58.451Z,97813.22
2023-03-20T04:52:26.580Z,97815.28
2023-03-20T04:54:54.612Z,97823.38
2023-03-20T04:57:22.672Z,97811.88
2023-03-20T04:59:51.138Z,97801.72
2023-03-20T05:02:20.817Z,97805.53
2023-03-20T05:04:51.035Z,97793.41
2023-03-20T05:07:19.244Z,97785.69
2023-03-20T05:09:47.856Z,97778.25
2023-03-20T05:12:15.980Z,97781.88
2023-03-20T05:14:44.453Z,97776.75
2023-03-20T05:17:12.565Z,97780.56
2023-03-20T05:19:43.588Z,97766.53
2023-03-20T05:22:15.817Z,97770.75
2023-03-20T05:24:43.940Z,97772.69
2023-03-20T05:27:11.982Z,97769.50
2023-03-20T05:29:39.981Z,97764.28
2023-03-20T05:32:08.559Z,97764.81
2023-03-20T05:34:36.846Z,97769.00
2023-03-20T05:37:06.305Z,97780.38
2023-03-20T05:39:34.385Z,97777.41
2023-03-20T05:42:02.500Z,97780.38
2023-03-20T05:44:30.893Z,97787.66
2023-03-20T05:46:58.974Z,97791.25
2023-03-20T05:49:27.438Z,97796.72
2023-03-20T05:51:55.807Z,97810.50
2023-03-20T05:54:25.292Z,97815.38
2023-03-20T05:56:55.713Z,97821.03
2023-03-20T05:59:25.309Z,97821.81
2023-03-20T06:01:53.456Z,97829.16
2023-03-20T06:04:21.924Z,97830.75
2023-03-20T06:06:49.942Z,97830.22
2023-03-20T06:09:18.216Z,97834.91
2023-03-20T06:11:49.128Z,97826.69
2023-03-20T06:14:17.268Z,97817.84
2023-03-20T06:16:45.554Z,97810.50
2023-03-20T06:19:13.898Z,97803.56
2023-03-20T06:21:42.596Z,97808.78
2023-03-20T06:24:10.802Z,97794.06
2023-03-20T06:26:38.787Z,97793.19
2023-03-20T06:29:08.821Z,97794.25
2023-03-20T06:31:36.899Z,97801.75
2023-03-20T06:34:05.245Z,97797.25
2023-03-20T06:36:35.166Z,97793.31
2023-03-20T06:39:03.929Z,97785.19
2023-03-20T06:41:35.000Z,97790.84
2023-03-20T06:44:04.005Z,97803.97
2023-03-20T06:46:33.622Z,97815.59
2023-03-20T06:49:03.997Z,97820.38
2023-03-20T06:51:33.880Z,97822.41
2023-03-20T06:54:02.586Z,97827.72
2023-03-20T06:56:31.210Z,97833.91
2023-03-20T06:58:59.212Z,97825.84
2023-03-20T07:01:28.466Z,97820.22
2023-03-20T07:03:57.936Z,97826.03
2023-03-20T07:06:26.691Z,97830.75
2023-03-20T07:08:54.938Z,97836.94
2023-03-20T07:11:25.213Z,97832.13
2023-03-20T07:13:53.199Z,97841.28
2023-03-20T07:16:21.323Z,97849.50
2023-03-20T07:18:49.414Z,97857.31
2023-03-20T07:21:23.406Z,97857.00
2023-03-20T07:23:51.784Z,97851.63
2023-03-20T07:26:19.823Z,97855.91
2023-03-20T07:28:47.910Z,97859.44
2023-03-20T07:31:21.208Z,97859.88
2023-03-20T07:33:49.437Z,97853.88
2023-03-20T07:36:17.843Z,97861.44
2023-03-20T07:38:47.371Z,97864.88
2023-03-20T07:41:15.486Z,97858.78
2023-03-20T07:43:44.783Z,97862.44
2023-03-20T07:46:13.511Z,97861.69
2023-03-20T07:48:41.696Z,97848.19
2023-03-20T07:51:09.706Z,97852.56
2023-03-20T07:53:37.764Z,97841.22
2023-03-20T07:56:08.657Z,97829.78
2023-03-20T07:58:36.984Z,97846.91
2023-03-20T08:01:05.238Z,97849.59
2023-03-20T08:03:34.090Z,97851.59
2023-03-20T08:06:04.314Z,97855.66
2023-03-20T08:08:32.517Z,97859.53
2023-03-20T08:11:01.042Z,97858.63
2023-03-20T08:13:30.512Z,97857.16
2023-03-20T08:15:59.649Z,97859.72
2023-03-20T08:18:28.173Z,97848.75
2023-03-20T08:20:57.725Z,97859.44
2023-03-20T08:23:27.394Z,97862.41
2023-03-20T08:25:56.429Z,97865.72
2023-03-20T08:28:40.022Z,97859.06
2023-03-20T08:31:14.168Z,97849.28
2023-03-20T08:33:42.929Z,97843.72
2023-03-20T08:36:12.179Z,97843.22
2023-03-20T08:38:41.615Z,97846.63
2023-03-20T08:41:10.468Z,97857.28
2023-03-20T08:43:39.830Z,97846.44
2023-03-20T08:46:08.742Z,97854.13
2023-03-20T08:48:38.372Z,97847.34
2023-03-20T08:51:07.549Z,97852.03
2023-03-20T08:53:35.641Z,97844.88
2023-03-20T08:56:03.799Z,97852.97
2023-03-20T08:58:43.012Z,97849.53
2023-03-20T09:01:12.755Z,97855.19
2023-03-20T09:03:42.310Z,97853.31
2023-03-20T09:06:11.314Z,97852.06
2023-03-20T09:08:39.589Z,97850.19
2023-03-20T09:11:08.135Z,97855.28
2023-03-20T09:13:36.802Z,97849.41
2023-03-20T09:16:06.976Z,97851.94
2023-03-20T09:18:36.394Z,97851.38
2023-03-20T09:21:06.764Z,97849.09
2023-03-20T09:23:35.148Z,97847.00
2023-03-20T09:26:03.427Z,97848.13
2023-03-20T09:28:31.935Z,97839.09
2023-03-20T09:31:00.179Z,97845.44
2023-03-20T09:33:28.383Z,97848.19
2023-03-20T09:35:57.620Z,97836.50
2023-03-20T09:38:27.150Z,97840.34
2023-03-20T09:40:56.323Z,97844.81
2023-03-20T09:43:30.442Z,97833.84
2023-03-20T09:46:04.496Z,97842.22
2023-03-20T09:48:36.360Z,97842.50
2023-03-20T09:51:06.655Z,97838.06
2023-03-20T09:53:38.253Z,97836.03
2023-03-20T09:56:07.053Z,97835.31
2023-03-20T09:58:35.937Z,97831.97
2023-03-20T10:01:05.331Z,97824.94
2023-03-20T10:03:38.598Z,97831.44
2023-03-20T10:06:09.130Z,97821.97
2023-03-20T10:08:39.394Z,97831.44
2023-03-20T10:11:16.105Z,97829.00
2023-03-20T10:13:56.353Z,97820.88
2023-03-20T10:16:29.886Z,97822.56
2023-03-20T10:19:02.640Z,97833.59
2023-03-20T10:21:34.036Z,97835.72
2023-03-20T10:24:04.571Z,97827.06
2023-03-20T10:26:34.227Z,97830.19
2023-03-20T10:29:03.691Z,97824.91
2023-03-20T10:31:36.797Z,97828.88
2023-03-20T10:34:19.020Z,97818.09
2023-03-20T10:36:54.214Z,97822.94
2023-03-20T10:39:30.008Z,97821.47
2023-03-20T10:42:00.893Z,97813.41
2023-03-20T10:44:31.260Z,97816.59
2023-03-20T10:46:59.321Z,97816.38
2023-03-20T10:49:33.476Z,97808.72
2023-03-20T10:52:02.918Z,97805.97
2023-03-20T10:54:33.323Z,97810.94
2023-03-20T10:57:02.137Z,97808.50
2023-03-20T10:59:32.652Z,97804.69
2023-03-20T11:02:01.656Z,97804.94
2023-03-20T11:04:30.281Z,97798.69
2023-03-20T11:07:01.382Z,97798.53
2023-03-20T11:09:31.329Z,97794.88
2023-03-20T11:12:01.732Z,97786.50
2023-03-20T11:14:34.408Z,97787.97
2023-03-20T11:17:04.065Z,97794.63
2023-03-20T11:19:34.638Z,97793.81
2023-03-20T11:22:08.591Z,97795.34
2023-03-20T11:24:38.367Z,97788.16
2023-03-20T11:27:09.103Z,97774.38
2023-03-20T11:29:37.600Z,97767.06
2023-03-20T11:32:08.053Z,97767.69
2023-03-20T11:34:38.590Z,97760.13
2023-03-20T11:37:10.825Z,97764.59
2023-03-20T11:39:40.228Z,97773.25
2023-03-20T11:42:23.779Z,97762.16
2023-03-20T11:44:58.956Z,97752.72
2023-03-20T11:47:27.828Z,97755.63
2023-03-20T11:49:56.975Z,97752.84
2023-03-20T11:52:27.970Z,97744.88
2023-03-20T11:54:57.413Z,97750.84
2023-03-20T11:57:35.078Z,97747.44
2023-03-20T12:00:08.608Z,97746.75
2023-03-20T12:02:37.711Z,97746.59
2023-03-20T12:05:20.673Z,97745.09
2023-03-20T12:07:49.670Z,97742.97
2023-03-20T12:10:19.411Z,97740.81
2023-03-20T12:12:51.286Z,97748.97
2023-03-20T12:15:20.434Z,97742.06
2023-03-20T12:17:49.907Z,97739.38
2023-03-20T12:20:31.869Z,97736.63
2023-03-20T12:23:04.128Z,97741.34
2023-03-20T12:25:36.534Z,97737.16
2023-03-20T12:28:08.004Z,97739.50
2023-03-20T12:30:51.455Z,97743.06
2023-03-20T12:33:22.560Z,97737.94
2023-03-20T12:35:51.610Z,97737.94
2023-03-20T12:38:25.479Z,97745.97
2023-03-20T12:40:56.558Z,97738.16
2023-03-20T12:43:27.498Z,97747.56
2023-03-20T12:45:58.125Z,97747.91
2023-03-20T12:48:49.918Z,97746.84
2023-03-20T12:51:20.708Z,97746.47
2023-03-20T12:54:29.326Z,97747.31
2023-03-20T12:57:04.125Z,97757.91
2023-03-20T12:59:38.621Z,97754.00
2023-03-20T13:02:15.484Z,97748.75
2023-03-20T13:04:48.506Z,97751.19
2023-03-20T13:07:19.630Z,97748.66
2023-03-20T13:10:02.119Z,97749.75
2023-03-20T13:12:36.870Z,97746.84
2023-03-20T13:15:15.337Z,97746.59
2023-03-20T13:17:46.595Z,97746.09
2023-03-20T13:20:23.062Z,97750.47
2023-03-20T13:22:58.491Z,97737.22
2023-03-20T13:25:35.847Z,97742.06
2023-03-20T13:28:06.531Z,97741.34
2023-03-20T13:30:38.676Z,97740.28
2023-03-20T13:33:10.918Z,97726.53
2023-03-20T13:35:43.809Z,97731.50
2023-03-20T13:38:15.096Z,97741.47
2023-03-20T13:40:44.743Z,97738.19
2023-03-20T13:43:20.989Z,97742.31
2023-03-20T13:45:50.802Z,97741.69
2023-03-20T13:48:29.466Z,97746.31
2023-03-20T13:51:03.716Z,97746.28
2023-03-20T13:53:35.061Z,97749.59
2023-03-20T13:56:08.990Z,97744.84
2023-03-20T13:58:47.729Z,97738.06
2023-03-20T14:01:21.671Z,97737.59
2023-03-20T14:03:50.183Z,97730.28
2023-03-20T14:06:20.138Z,97726.50
2023-03-20T14:08:54.445Z,97717.41
2023-03-20T14:11:35.371Z,97719.81
2023-03-20T14:14:08.568Z,97721.66
2023-03-20T14:16:38.495Z,97714.47
2023-03-20T14:19:13.329Z,97718.84
2023-03-20T14:21:43.432Z,97708.63
2023-03-20T14:24:12.300Z,97712.03
2023-03-20T14:26:41.965Z,97703.66
2023-03-20T14:29:34.691Z,97709.59
2023-03-20T14:32:31.324Z,97712.28
2023-03-20T14:35:01.617Z,97707.53
2023-03-20T14:37:38.281Z,97699.41
2023-03-20T14:40:14.421Z,97701.84
2023-03-20T14:42:52.278Z,97693.22
2023-03-20T14:45:37.703Z,97703.53
2023-03-20T14:48:46.123Z,97695.13
2023-03-20T14:51:42.533Z,97700.63
2023-03-20T14:54:37.338Z,97695.16
2023-03-20T14:57:12.974Z,97700.38
2023-03-20T14:59:41.172Z,97687.47
2023-03-20T15:02:25.225Z,97681.00
2023-03-20T15:04:54.687Z,97684.84
2023-03-20T15:07:25.451Z,97683.63
2023-03-20T15:09:55.024Z,97683.00
2023-03-20T15:12:26.211Z,97673.66
2023-03-20T15:14:57.074Z,97682.59
2023-03-20T15:17:27.716Z,97682.22
2023-03-20T15:20:04.523Z,97680.41
2023-03-20T15:22:35.138Z,97679.75
2023-03-20T15:25:03.258Z,97676.00
2023-03-20T15:27:32.060Z,97674.41
2023-03-20T15:30:02.090Z,97672.75
2023-03-20T15:32:30.608Z,97678.81
2023-03-20T15:34:58.863Z,97680.91
2023-03-20T15:37:28.739Z,97676.91
2023-03-20T15:39:59.253Z,97675.69
2023-03-20T15:42:27.734Z,97671.25
2023-03-20T15:44:56.330Z,97679.16
2023-03-20T15:47:24.784Z,97664.72
2023-03-20T15:49:54.318Z,97667.97
2023-03-20T15:52:29.191Z,97661.03
2023-03-20T15:54:59.230Z,97665.44
2023-03-20T15:57:31.450Z,97666.78
2023-03-20T16:00:00.796Z,97662.19
2023-03-20T16:02:29.710Z,97652.66
2023-03-20T16:04:59.087Z,97661.91
2023-03-20T16:07:28.973Z,97653.00
2023-03-20T16:09:58.599Z,97654.75
2023-03-20T16:12:27.649Z,97650.47
2023-03-20T16:14:55.977Z,97653.22
2023-03-20T16:17:26.407Z,97660.09
2023-03-20T16:19:56.985Z,97660.59
2023-03-20T16:22:26.484Z,97664.59
2023-03-20T16:24:58.087Z,97649.16
2023-03-20T16:27:30.066Z,97646.34
2023-03-20T16:30:02.490Z,97651.94
2023-03-20T16:32:35.648Z,97642.72
2023-03-20T16:35:06.227Z,97650.53
2023-03-20T16:37:38.775Z,97646.88
2023-03-20T16:40:16.113Z,97641.41
2023-03-20T16:42:45.630Z,97642.16
2023-03-20T16:45:21.346Z,97627.44
2023-03-20T16:47:49.858Z,97634.75
2023-03-20T16:50:21.971Z,97640.97
2023-03-20T16:53:04.737Z,97631.69
2023-03-20T16:55:34.535Z,97638.00
2023-03-20T16:58:05.438Z,97639.72
2023-03-20T17:00:36.299Z,97645.44
2023-03-20T17:03:13.094Z,97646.53
2023-03-20T17:05:53.849Z,97646.53
2023-03-20T17:08:29.216Z,97660.66
2023-03-20T17:10:59.064Z,97660.75
2023-03-20T17:13:28.512Z,97659.56
2023-03-20T17:15:56.726Z,97660.28
2023-03-20T17:18:24.810Z,97657.84
2023-03-20T17:20:54.636Z,97666.59
2023-03-20T17:23:23.193Z,97661.25
2023-03-20T17:25:51.751Z,97657.13
2023-03-20T17:28:22.482Z,97666.34
2023-03-20T17:30:52.754Z,97657.22
2023-03-20T17:33:22.072Z,97665.63
2023-03-20T17:35:53.037Z,97663.66
2023-03-20T17:38:22.810Z,97668.31
2023-03-20T17:40:51.225Z,97672.81
2023-03-20T17:43:20.587Z,97669.88
2023-03-20T17:45:48.709Z,97671.22
2023-03-20T17:48:20.556Z,97673.50
2023-03-20T17:50:50.309Z,97689.44
2023-03-20T17:53:19.240Z,97693.78
2023-03-20T17:55:47.358Z,97696.00
2023-03-20T17:58:16.937Z,97689.06
2023-03-20T18:00:45.154Z,97698.38
2023-03-20T18:03:15.385Z,97691.47
2023-03-20T18:05:44.990Z,97691.59
2023-03-20T18:08:17.127Z,97684.19
2023-03-20T18:10:46.071Z,97678.09
2023-03-20T18:13:14.224Z,97685.03
2023-03-20T18:15:44.524Z,97682.00
2023-03-20T18:18:13.526Z,97682.88
2023-03-20T18:20:42.284Z,97683.13
2023-03-20T18:23:12.963Z,97683.34
2023-03-20T18:25:41.199Z,97687.94
2023-03-20T18:28:13.434Z,97685.13
2023-03-20T18:30:42.270Z,97693.06
2023-03-20T18:33:10.521Z,97700.22
2023-03-20T18:35:39.177Z,97697.94
2023-03-20T18:38:09.345Z,97699.13
2023-03-20T18:40:39.099Z,97698.06
2023-03-20T18:43:07.280Z,97699.72
2023-03-20T18:45:35.352Z,97695.84
2023-03-20T18:48:04.198Z,97695.22
2023-03-20T18:50:36.581Z,97695.84
2023-03-20T18:53:05.790Z,97700.84
2023-03-20T18:55:33.945Z,97691.19
2023-03-20T18:58:06.248Z,97695.72
2023-03-20T19:00:37.995Z,97691.84
2023-03-20T19:03:06.342Z,97692.69
2023-03-20T19:05:34.546Z,97686.25
2023-03-20T19:08:03.564Z,97692.84
2023-03-20T19:10:33.969Z,97691.63
2023-03-20T19:13:05.442Z,97682.75
2023-03-20T19:15:35.777Z,97687.59
2023-03-20T19:18:04.031Z,97683.00
2023-03-20T19:20:36.208Z,97680.94
2023-03-20T19:23:06.927Z,97688.59
2023-03-20T19:25:35.033Z,97685.53
2023-03-20T19:28:05.634Z,97688.94
2023-03-20T19:30:35.288Z,97681.88
2023-03-20T19:33:03.676Z,97681.66
2023-03-20T19:36:11.897Z,97682.50
2023-03-20T19:38:21.409Z,97685.53
2023-03-20T19:40:52.890Z,97679.56
2023-03-20T19:43:22.598Z,97678.00
2023-03-20T19:45:52.045Z,97677.50
2023-03-20T19:48:21.105Z,97672.16
2023-03-20T19:50:51.301Z,97668.78
2023-03-20T19:53:21.008Z,97670.13
2023-03-20T19:55:49.144Z,97672.06
2023-03-20T19:58:17.346Z,97676.09
2023-03-20T20:00:58.960Z,97669.03
2023-03-20T20:03:27.839Z,97670.97
2023-03-20T20:05:55.962Z,97669.00
2023-03-20T20:08:43.450Z,97675.09
2023-03-20T20:11:14.626Z,97667.34
2023-03-20T20:14:04.279Z,97666.63
2023-03-20T20:16:33.170Z,97675.09
2023-03-20T20:19:01.403Z,97668.78
2023-03-20T20:24:17.966Z,97668.88
2023-03-20T20:27:19.264Z,97668.91
2023-03-20T20:29:39.240Z,97668.28
2023-03-20T20:32:10.268Z,97672.44
2023-03-20T20:40:18.260Z,97672.19
2023-03-20T20:42:49.277Z,97674.94
2023-03-20T20:45:17.338Z,97660.06
2023-03-20T20:47:47.687Z,97671.22
2023-03-20T20:50:16.592Z,97666.94
2023-03-20T20:52:44.655Z,97658.31
2023-03-20T20:55:23.143Z,97659.06
2023-03-20T20:57:52.210Z,97658.09
2023-03-20T21:00:21.317Z,97653.47
2023-03-20T21:02:50.944Z,97655.28
2023-03-20T21:05:19.854Z,97653.25
2023-03-20T21:07:48.828Z,97654.31
2023-03-20T21:10:18.639Z,97652.13
2023-03-20T21:12:58.438Z,97650.69
2023-03-20T21:15:27.909Z,97651.38
2023-03-20T21:18:01.559Z,97651.03
2023-03-20T21:20:30.243Z,97650.91
2023-03-20T21:22:58.378Z,97646.41
2023-03-20T21:25:39.692Z,97641.53
2023-03-20T21:28:09.936Z,97645.81
2023-03-20T21:30:46.737Z,97653.81
2023-03-20T21:33:26.216Z,97648.59
2023-03-20T21:35:54.677Z,97646.66
2023-03-20T21:38:58.464Z,97646.91
2023-03-20T21:41:11.324Z,97655.53
2023-03-20T21:43:39.919Z,97647.91
2023-03-20T21:49:43.657Z,97647.91
2023-03-20T21:52:43.979Z,97651.16
2023-03-20T22:03:10.288Z,97649.09
2023-03-20T22:06:45.700Z,97654.78
2023-03-20T22:09:31.014Z,97645.44
2023-03-20T22:12:01.856Z,97646.53
2023-03-20T22:26:28.535Z,97655.19
2023-03-20T22:31:43.394Z,97648.25
2023-03-20T22:34:30.885Z,97648.25
2023-03-20T22:37:40.788Z,97653.94
2023-03-20T22:45:11.985Z,97642.03
2023-03-20T22:47:40.633Z,97639.84
2023-03-20T22:50:10.950Z,97636.19
2023-03-20T22:52:48.513Z,97635.22
2023-03-20T22:55:18.608Z,97632.91
2023-03-20T22:58:04.041Z,97630.22
2023-03-20T23:00:34.934Z,97633.38
2023-03-20T23:03:19.535Z,97635.09
2023-03-20T23:05:51.677Z,97631.34
2023-03-20T23:08:19.800Z,97635.22
2023-03-20T23:10:49.916Z,97632.09
2023-03-20T23:13:18.586Z,97633.16
2023-03-20T23:15:50.676Z,97638.16
2023-03-20T23:18:19.380Z,97635.00
2023-03-20T23:20:47.624Z,97631.84
2023-03-20T23:23:15.719Z,97635.34
2023-03-20T23:25:45.383Z,97627.81
2023-03-20T23:28:14.954Z,97627.19
2023-03-20T23:30:49.780Z,97625.50
2023-03-20T23:33:22.494Z,97624.19
2023-03-20T23:35:55.170Z,97619.28
2023-03-20T23:38:23.475Z,97623.31
2023-03-20T23:40:51.695Z,97620.25
2023-03-20T23:43:21.257Z,97617.91
2023-03-20T23:45:49.504Z,97610.59
2023-03-20T23:48:18.508Z,97619.84
2023-03-20T23:50:53.340Z,97617.06
2023-03-20T23:53:22.035Z,97615.13
2023-03-20T23:55:50.482Z,97610.28
2023-03-20T23:58:19.769Z,97602.38
